Benton, Louisiana
Current Conditions -  °F | °C
As of 2:53 PM on Wednesday 26 Nov 2014 (Local Time) from KDTN Reporting Station
Clear Clear  
Wind Chill: 67°   Ceiling: Unl
Heat Index: 67°   Visibility: 10mi
Dew Point: 28°   Wind: 13mph
Humidity: 23%   Direction: 280°W
Pressure: 30.11"   Gusts: NA
Location:  32.69°N, 93.74°W
Report Text: KDTN 262053Z 28011KT 10SM CLR 19/M02 A3011 RMK AO2 SLP196 T01941022 53005
Loading
Personal Weather Stations






























Interactive Weather Map New forecast layout! Learn more

10-Day Weather Forecast

Advertisements
Track Severe Weather on mobile